sensor_id;sensor_type;location;lat;lon;timestamp;P1;durP1;ratioP1;P2;durP2;ratioP2
33593;SDS011;19920;52.242;20.940;2023-11-19T00:00:16;47.80;;;24.40;;
33593;SDS011;19920;52.242;20.940;2023-11-19T00:02:42;51.17;;;24.35;;
33593;SDS011;19920;52.242;20.940;2023-11-19T00:05:08;47.92;;;24.60;;
33593;SDS011;19920;52.242;20.940;2023-11-19T00:07:37;44.42;;;23.77;;
33593;SDS011;19920;52.242;20.940;2023-11-19T00:10:07;46.08;;;23.77;;
33593;SDS011;19920;52.242;20.940;2023-11-19T00:12:34;44.22;;;23.85;;
33593;SDS011;19920;52.242;20.940;2023-11-19T00:15:01;50.35;;;24.75;;
33593;SDS011;19920;52.242;20.940;2023-11-19T00:17:27;49.47;;;24.38;;
33593;SDS011;19920;52.242;20.940;2023-11-19T00:19:52;48.67;;;24.92;;
33593;SDS011;19920;52.242;20.940;2023-11-19T00:22:18;48.10;;;24.40;;
33593;SDS011;19920;52.242;20.940;2023-11-19T00:24:46;45.95;;;23.67;;
33593;SDS011;19920;52.242;20.940;2023-11-19T00:27:11;44.45;;;23.02;;
33593;SDS011;19920;52.242;20.940;2023-11-19T00:29:37;44.63;;;23.52;;
33593;SDS011;19920;52.242;20.940;2023-11-19T00:32:02;45.00;;;22.70;;
33593;SDS011;19920;52.242;20.940;2023-11-19T00:34:30;48.40;;;23.33;;
33593;SDS011;19920;52.242;20.940;2023-11-19T00:36:56;49.53;;;23.17;;
33593;SDS011;19920;52.242;20.940;2023-11-19T00:39:21;49.25;;;24.88;;
33593;SDS011;19920;52.242;20.940;2023-11-19T00:41:47;52.17;;;23.55;;
33593;SDS011;19920;52.242;20.940;2023-11-19T00:44:13;49.13;;;24.42;;
33593;SDS011;19920;52.242;20.940;2023-11-19T00:46:39;49.20;;;24.73;;
33593;SDS011;19920;52.242;20.940;2023-11-19T00:49:04;44.67;;;24.27;;
33593;SDS011;19920;52.242;20.940;2023-11-19T00:51:30;45.90;;;24.20;;
33593;SDS011;19920;52.242;20.940;2023-11-19T00:53:59;45.15;;;23.73;;
33593;SDS011;19920;52.242;20.940;2023-11-19T00:56:26;50.00;;;25.02;;
33593;SDS011;19920;52.242;20.940;2023-11-19T00:58:51;49.97;;;25.05;;
33593;SDS011;19920;52.242;20.940;2023-11-19T01:01:17;47.65;;;24.48;;
33593;SDS011;19920;52.242;20.940;2023-11-19T01:03:42;48.17;;;23.50;;
33593;SDS011;19920;52.242;20.940;2023-11-19T01:06:08;48.70;;;23.58;;
33593;SDS011;19920;52.242;20.940;2023-11-19T01:08:33;45.60;;;23.70;;
33593;SDS011;19920;52.242;20.940;2023-11-19T01:11:00;43.42;;;24.00;;
33593;SDS011;19920;52.242;20.940;2023-11-19T01:13:27;46.30;;;24.02;;
33593;SDS011;19920;52.242;20.940;2023-11-19T01:15:53;44.75;;;23.52;;
33593;SDS011;19920;52.242;20.940;2023-11-19T01:18:18;45.42;;;22.92;;
33593;SDS011;19920;52.242;20.940;2023-11-19T01:20:44;50.13;;;24.55;;
33593;SDS011;19920;52.242;20.940;2023-11-19T01:23:09;47.05;;;24.83;;
33593;SDS011;19920;52.242;20.940;2023-11-19T01:25:35;49.58;;;26.15;;
33593;SDS011;19920;52.242;20.940;2023-11-19T01:28:02;44.42;;;23.92;;
33593;SDS011;19920;52.242;20.940;2023-11-19T01:30:27;45.05;;;23.95;;
33593;SDS011;19920;52.242;20.940;2023-11-19T01:32:53;50.85;;;24.73;;
33593;SDS011;19920;52.242;20.940;2023-11-19T01:35:19;47.05;;;24.70;;
33593;SDS011;19920;52.242;20.940;2023-11-19T01:37:44;50.72;;;25.58;;
33593;SDS011;19920;52.242;20.940;2023-11-19T01:40:10;49.22;;;24.17;;
33593;SDS011;19920;52.242;20.940;2023-11-19T01:42:37;47.38;;;23.38;;
33593;SDS011;19920;52.242;20.940;2023-11-19T01:45:06;48.85;;;24.52;;
33593;SDS011;19920;52.242;20.940;2023-11-19T01:47:34;50.28;;;25.23;;
33593;SDS011;19920;52.242;20.940;2023-11-19T01:50:00;48.65;;;24.48;;
33593;SDS011;19920;52.242;20.940;2023-11-19T01:52:31;46.75;;;24.88;;
33593;SDS011;19920;52.242;20.940;2023-11-19T01:54:59;51.55;;;25.63;;
33593;SDS011;19920;52.242;20.940;2023-11-19T01:57:25;52.88;;;26.67;;
33593;SDS011;19920;52.242;20.940;2023-11-19T01:59:51;50.80;;;26.67;;
33593;SDS011;19920;52.242;20.940;2023-11-19T02:02:17;52.97;;;24.80;;
33593;SDS011;19920;52.242;20.940;2023-11-19T02:04:45;48.90;;;25.55;;
33593;SDS011;19920;52.242;20.940;2023-11-19T02:07:13;51.17;;;25.80;;
33593;SDS011;19920;52.242;20.940;2023-11-19T02:09:42;54.35;;;26.50;;
33593;SDS011;19920;52.242;20.940;2023-11-19T02:12:08;52.92;;;25.75;;
33593;SDS011;19920;52.242;20.940;2023-11-19T02:14:36;49.22;;;25.30;;
33593;SDS011;19920;52.242;20.940;2023-11-19T02:17:04;51.17;;;25.48;;
33593;SDS011;19920;52.242;20.940;2023-11-19T02:19:30;54.05;;;26.25;;
33593;SDS011;19920;52.242;20.940;2023-11-19T02:21:55;55.55;;;26.52;;
33593;SDS011;19920;52.242;20.940;2023-11-19T02:24:21;55.38;;;28.48;;
33593;SDS011;19920;52.242;20.940;2023-11-19T02:29:35;54.88;;;27.75;;
33593;SDS011;19920;52.242;20.940;2023-11-19T02:32:01;52.92;;;26.58;;
33593;SDS011;19920;52.242;20.940;2023-11-19T02:34:28;49.53;;;24.73;;
33593;SDS011;19920;52.242;20.940;2023-11-19T02:36:53;50.70;;;25.83;;
33593;SDS011;19920;52.242;20.940;2023-11-19T02:39:19;51.85;;;26.55;;
33593;SDS011;19920;52.242;20.940;2023-11-19T02:41:46;56.58;;;27.08;;
33593;SDS011;19920;52.242;20.940;2023-11-19T02:44:15;51.40;;;26.30;;
33593;SDS011;19920;52.242;20.940;2023-11-19T02:46:41;56.50;;;26.42;;
33593;SDS011;19920;52.242;20.940;2023-11-19T02:49:07;51.85;;;25.63;;
33593;SDS011;19920;52.242;20.940;2023-11-19T02:51:33;49.55;;;25.05;;
33593;SDS011;19920;52.242;20.940;2023-11-19T02:53:59;49.25;;;25.65;;
33593;SDS011;19920;52.242;20.940;2023-11-19T02:56:25;45.65;;;23.38;;
33593;SDS011;19920;52.242;20.940;2023-11-19T02:58:51;45.67;;;22.95;;
33593;SDS011;19920;52.242;20.940;2023-11-19T03:01:24;50.28;;;23.83;;
33593;SDS011;19920;52.242;20.940;2023-11-19T03:03:55;45.63;;;22.70;;
33593;SDS011;19920;52.242;20.940;2023-11-19T03:06:26;43.00;;;21.95;;
33593;SDS011;19920;52.242;20.940;2023-11-19T03:08:53;45.90;;;22.73;;
33593;SDS011;19920;52.242;20.940;2023-11-19T03:11:19;41.90;;;21.80;;
33593;SDS011;19920;52.242;20.940;2023-11-19T03:13:45;43.35;;;22.00;;
33593;SDS011;19920;52.242;20.940;2023-11-19T03:16:11;45.40;;;22.80;;
33593;SDS011;19920;52.242;20.940;2023-11-19T03:18:37;45.53;;;22.83;;
33593;SDS011;19920;52.242;20.940;2023-11-19T03:21:04;41.30;;;22.13;;
33593;SDS011;19920;52.242;20.940;2023-11-19T03:23:36;46.80;;;22.02;;
33593;SDS011;19920;52.242;20.940;2023-11-19T03:26:02;41.25;;;21.75;;
33593;SDS011;19920;52.242;20.940;2023-11-19T03:28:31;37.95;;;20.88;;
33593;SDS011;19920;52.242;20.940;2023-11-19T03:30:56;44.35;;;21.88;;
33593;SDS011;19920;52.242;20.940;2023-11-19T03:33:22;40.67;;;19.85;;
33593;SDS011;19920;52.242;20.940;2023-11-19T03:35:47;39.67;;;21.05;;
33593;SDS011;19920;52.242;20.940;2023-11-19T03:38:13;37.00;;;18.92;;
33593;SDS011;19920;52.242;20.940;2023-11-19T03:40:39;39.13;;;20.10;;
33593;SDS011;19920;52.242;20.940;2023-11-19T03:43:05;42.25;;;21.05;;
33593;SDS011;19920;52.242;20.940;2023-11-19T03:45:31;37.92;;;19.67;;
33593;SDS011;19920;52.242;20.940;2023-11-19T03:47:56;36.85;;;19.35;;
33593;SDS011;19920;52.242;20.940;2023-11-19T03:50:22;42.08;;;20.27;;
33593;SDS011;19920;52.242;20.940;2023-11-19T03:52:49;38.40;;;19.80;;
33593;SDS011;19920;52.242;20.940;2023-11-19T03:55:15;41.58;;;20.77;;
33593;SDS011;19920;52.242;20.940;2023-11-19T03:57:40;39.78;;;19.77;;
33593;SDS011;19920;52.242;20.940;2023-11-19T04:00:06;41.67;;;20.60;;
33593;SDS011;19920;52.242;20.940;2023-11-19T04:02:36;40.10;;;20.07;;
33593;SDS011;19920;52.242;20.940;2023-11-19T04:05:02;39.97;;;20.52;;
33593;SDS011;19920;52.242;20.940;2023-11-19T04:07:28;41.22;;;20.85;;
33593;SDS011;19920;52.242;20.940;2023-11-19T04:09:54;43.20;;;20.50;;
33593;SDS011;19920;52.242;20.940;2023-11-19T04:12:20;39.60;;;20.63;;
33593;SDS011;19920;52.242;20.940;2023-11-19T04:14:47;46.08;;;21.52;;
33593;SDS011;19920;52.242;20.940;2023-11-19T04:17:12;41.03;;;19.98;;
33593;SDS011;19920;52.242;20.940;2023-11-19T04:19:38;41.55;;;20.33;;
33593;SDS011;19920;52.242;20.940;2023-11-19T04:22:06;36.13;;;19.50;;
33593;SDS011;19920;52.242;20.940;2023-11-19T04:24:32;38.63;;;19.45;;
33593;SDS011;19920;52.242;20.940;2023-11-19T04:26:58;38.72;;;19.83;;
33593;SDS011;19920;52.242;20.940;2023-11-19T04:29:24;37.72;;;19.20;;
33593;SDS011;19920;52.242;20.940;2023-11-19T04:31:49;38.75;;;20.10;;
33593;SDS011;19920;52.242;20.940;2023-11-19T04:34:15;40.30;;;19.55;;
33593;SDS011;19920;52.242;20.940;2023-11-19T04:36:40;40.25;;;20.55;;
33593;SDS011;19920;52.242;20.940;2023-11-19T04:39:06;39.30;;;19.83;;
33593;SDS011;19920;52.242;20.940;2023-11-19T04:41:45;36.50;;;19.15;;
33593;SDS011;19920;52.242;20.940;2023-11-19T04:44:12;40.38;;;20.33;;
33593;SDS011;19920;52.242;20.940;2023-11-19T04:46:37;36.60;;;18.83;;
33593;SDS011;19920;52.242;20.940;2023-11-19T04:49:03;34.28;;;19.40;;
33593;SDS011;19920;52.242;20.940;2023-11-19T04:51:29;36.70;;;19.17;;
33593;SDS011;19920;52.242;20.940;2023-11-19T04:53:55;34.80;;;18.05;;
33593;SDS011;19920;52.242;20.940;2023-11-19T04:56:21;33.42;;;17.63;;
33593;SDS011;19920;52.242;20.940;2023-11-19T04:58:48;34.63;;;17.88;;
33593;SDS011;19920;52.242;20.940;2023-11-19T05:01:14;31.85;;;15.98;;
33593;SDS011;19920;52.242;20.940;2023-11-19T05:03:43;35.83;;;19.23;;
33593;SDS011;19920;52.242;20.940;2023-11-19T05:06:09;34.05;;;17.98;;
33593;SDS011;19920;52.242;20.940;2023-11-19T05:08:35;32.63;;;17.55;;
33593;SDS011;19920;52.242;20.940;2023-11-19T05:11:00;35.05;;;18.58;;
33593;SDS011;19920;52.242;20.940;2023-11-19T05:13:26;36.22;;;17.95;;
33593;SDS011;19920;52.242;20.940;2023-11-19T05:15:51;33.38;;;17.52;;
33593;SDS011;19920;52.242;20.940;2023-11-19T05:18:17;32.65;;;17.13;;
33593;SDS011;19920;52.242;20.940;2023-11-19T05:20:43;32.13;;;16.65;;
33593;SDS011;19920;52.242;20.940;2023-11-19T05:23:09;30.73;;;16.67;;
33593;SDS011;19920;52.242;20.940;2023-11-19T05:25:36;33.30;;;17.98;;
33593;SDS011;19920;52.242;20.940;2023-11-19T05:28:02;35.28;;;18.08;;
33593;SDS011;19920;52.242;20.940;2023-11-19T05:30:27;36.47;;;17.73;;
33593;SDS011;19920;52.242;20.940;2023-11-19T05:32:53;31.40;;;16.55;;
33593;SDS011;19920;52.242;20.940;2023-11-19T05:35:18;36.88;;;17.65;;
33593;SDS011;19920;52.242;20.940;2023-11-19T05:37:44;33.40;;;17.13;;
33593;SDS011;19920;52.242;20.940;2023-11-19T05:40:09;35.08;;;18.33;;
33593;SDS011;19920;52.242;20.940;2023-11-19T05:42:40;36.72;;;18.02;;
33593;SDS011;19920;52.242;20.940;2023-11-19T05:45:06;35.13;;;18.30;;
33593;SDS011;19920;52.242;20.940;2023-11-19T05:47:33;34.38;;;18.27;;
33593;SDS011;19920;52.242;20.940;2023-11-19T05:49:58;33.53;;;16.95;;
33593;SDS011;19920;52.242;20.940;2023-11-19T05:52:24;34.53;;;17.85;;
33593;SDS011;19920;52.242;20.940;2023-11-19T05:54:49;36.35;;;17.27;;
33593;SDS011;19920;52.242;20.940;2023-11-19T05:57:17;34.08;;;18.55;;
33593;SDS011;19920;52.242;20.940;2023-11-19T05:59:50;34.42;;;16.85;;
33593;SDS011;19920;52.242;20.940;2023-11-19T06:02:16;33.58;;;17.98;;
33593;SDS011;19920;52.242;20.940;2023-11-19T06:04:42;39.08;;;18.92;;
33593;SDS011;19920;52.242;20.940;2023-11-19T06:07:09;33.38;;;16.75;;
33593;SDS011;19920;52.242;20.940;2023-11-19T06:09:35;34.55;;;17.02;;
33593;SDS011;19920;52.242;20.940;2023-11-19T06:12:01;32.35;;;16.55;;
33593;SDS011;19920;52.242;20.940;2023-11-19T06:14:31;36.05;;;16.88;;
33593;SDS011;19920;52.242;20.940;2023-11-19T06:16:56;31.45;;;16.48;;
33593;SDS011;19920;52.242;20.940;2023-11-19T06:19:22;33.25;;;17.17;;
33593;SDS011;19920;52.242;20.940;2023-11-19T06:21:49;31.33;;;16.27;;
33593;SDS011;19920;52.242;20.940;2023-11-19T06:24:15;34.05;;;16.77;;
33593;SDS011;19920;52.242;20.940;2023-11-19T06:26:40;28.42;;;15.20;;
33593;SDS011;19920;52.242;20.940;2023-11-19T06:29:06;29.85;;;15.90;;
33593;SDS011;19920;52.242;20.940;2023-11-19T06:31:32;27.85;;;14.55;;
33593;SDS011;19920;52.242;20.940;2023-11-19T06:33:57;25.35;;;13.63;;
33593;SDS011;19920;52.242;20.940;2023-11-19T06:36:23;25.77;;;13.50;;
33593;SDS011;19920;52.242;20.940;2023-11-19T06:38:48;23.98;;;12.77;;
33593;SDS011;19920;52.242;20.940;2023-11-19T06:41:14;23.63;;;12.27;;
33593;SDS011;19920;52.242;20.940;2023-11-19T06:43:40;20.02;;;10.80;;
33593;SDS011;19920;52.242;20.940;2023-11-19T06:46:05;19.10;;;10.88;;
33593;SDS011;19920;52.242;20.940;2023-11-19T06:48:31;19.92;;;11.18;;
33593;SDS011;19920;52.242;20.940;2023-11-19T06:50:57;18.85;;;10.30;;
33593;SDS011;19920;52.242;20.940;2023-11-19T06:53:24;17.98;;;10.63;;
33593;SDS011;19920;52.242;20.940;2023-11-19T06:55:49;16.65;;;10.05;;
33593;SDS011;19920;52.242;20.940;2023-11-19T06:58:15;17.65;;;10.35;;
33593;SDS011;19920;52.242;20.940;2023-11-19T07:00:40;16.50;;;9.80;;
33593;SDS011;19920;52.242;20.940;2023-11-19T07:03:06;17.90;;;10.43;;
33593;SDS011;19920;52.242;20.940;2023-11-19T07:05:35;16.40;;;10.85;;
33593;SDS011;19920;52.242;20.940;2023-11-19T07:08:03;18.65;;;10.52;;
33593;SDS011;19920;52.242;20.940;2023-11-19T07:10:29;17.50;;;10.90;;
33593;SDS011;19920;52.242;20.940;2023-11-19T07:12:55;16.05;;;10.18;;
33593;SDS011;19920;52.242;20.940;2023-11-19T07:15:21;18.27;;;11.10;;
33593;SDS011;19920;52.242;20.940;2023-11-19T07:17:46;17.45;;;11.13;;
33593;SDS011;19920;52.242;20.940;2023-11-19T07:20:13;19.67;;;12.35;;
33593;SDS011;19920;52.242;20.940;2023-11-19T07:22:42;16.85;;;11.15;;
33593;SDS011;19920;52.242;20.940;2023-11-19T07:25:10;15.95;;;9.80;;
33593;SDS011;19920;52.242;20.940;2023-11-19T07:27:38;15.35;;;9.77;;
33593;SDS011;19920;52.242;20.940;2023-11-19T07:30:03;13.32;;;8.82;;
33593;SDS011;19920;52.242;20.940;2023-11-19T07:32:32;12.40;;;8.10;;
33593;SDS011;19920;52.242;20.940;2023-11-19T07:34:58;13.98;;;9.13;;
33593;SDS011;19920;52.242;20.940;2023-11-19T07:37:23;13.68;;;9.02;;
33593;SDS011;19920;52.242;20.940;2023-11-19T07:39:49;14.52;;;8.88;;
33593;SDS011;19920;52.242;20.940;2023-11-19T07:42:14;17.25;;;10.23;;
33593;SDS011;19920;52.242;20.940;2023-11-19T07:44:40;14.70;;;9.75;;
33593;SDS011;19920;52.242;20.940;2023-11-19T07:47:06;14.95;;;9.13;;
33593;SDS011;19920;52.242;20.940;2023-11-19T07:49:32;15.35;;;9.55;;
33593;SDS011;19920;52.242;20.940;2023-11-19T07:51:58;15.23;;;9.57;;
33593;SDS011;19920;52.242;20.940;2023-11-19T07:54:23;13.68;;;9.45;;
33593;SDS011;19920;52.242;20.940;2023-11-19T07:56:49;14.18;;;9.60;;
33593;SDS011;19920;52.242;20.940;2023-11-19T07:59:15;14.48;;;8.88;;
33593;SDS011;19920;52.242;20.940;2023-11-19T08:01:41;16.23;;;10.00;;
33593;SDS011;19920;52.242;20.940;2023-11-19T08:04:06;15.40;;;9.10;;
33593;SDS011;19920;52.242;20.940;2023-11-19T08:06:32;15.00;;;9.73;;
33593;SDS011;19920;52.242;20.940;2023-11-19T08:08:57;15.52;;;9.88;;
33593;SDS011;19920;52.242;20.940;2023-11-19T08:11:24;16.77;;;10.43;;
33593;SDS011;19920;52.242;20.940;2023-11-19T08:13:50;16.67;;;10.68;;
33593;SDS011;19920;52.242;20.940;2023-11-19T08:16:15;16.08;;;10.40;;
33593;SDS011;19920;52.242;20.940;2023-11-19T08:18:41;16.42;;;10.45;;
33593;SDS011;19920;52.242;20.940;2023-11-19T08:21:10;16.58;;;10.32;;
33593;SDS011;19920;52.242;20.940;2023-11-19T08:23:36;17.75;;;11.00;;
33593;SDS011;19920;52.242;20.940;2023-11-19T08:26:02;16.95;;;11.30;;
33593;SDS011;19920;52.242;20.940;2023-11-19T08:28:27;16.67;;;10.88;;
33593;SDS011;19920;52.242;20.940;2023-11-19T08:30:53;17.05;;;10.95;;
33593;SDS011;19920;52.242;20.940;2023-11-19T08:33:19;16.80;;;11.02;;
33593;SDS011;19920;52.242;20.940;2023-11-19T08:35:47;17.17;;;11.32;;
33593;SDS011;19920;52.242;20.940;2023-11-19T08:38:13;17.63;;;10.88;;
33593;SDS011;19920;52.242;20.940;2023-11-19T08:40:38;18.13;;;10.82;;
33593;SDS011;19920;52.242;20.940;2023-11-19T08:43:04;17.20;;;11.00;;
33593;SDS011;19920;52.242;20.940;2023-11-19T08:45:30;16.45;;;10.73;;
33593;SDS011;19920;52.242;20.940;2023-11-19T08:47:56;17.88;;;10.73;;
33593;SDS011;19920;52.242;20.940;2023-11-19T08:50:22;18.35;;;10.63;;
33593;SDS011;19920;52.242;20.940;2023-11-19T08:52:48;17.95;;;11.55;;
33593;SDS011;19920;52.242;20.940;2023-11-19T08:55:13;17.95;;;10.68;;
33593;SDS011;19920;52.242;20.940;2023-11-19T08:57:39;16.90;;;10.77;;
33593;SDS011;19920;52.242;20.940;2023-11-19T09:00:05;18.83;;;11.40;;
33593;SDS011;19920;52.242;20.940;2023-11-19T09:02:34;18.40;;;10.87;;
33593;SDS011;19920;52.242;20.940;2023-11-19T09:05:02;16.98;;;10.77;;
33593;SDS011;19920;52.242;20.940;2023-11-19T09:07:28;16.45;;;10.65;;
33593;SDS011;19920;52.242;20.940;2023-11-19T09:09:53;16.77;;;11.15;;
33593;SDS011;19920;52.242;20.940;2023-11-19T09:12:19;15.82;;;10.40;;
33593;SDS011;19920;52.242;20.940;2023-11-19T09:14:44;18.48;;;11.43;;
33593;SDS011;19920;52.242;20.940;2023-11-19T09:17:10;19.13;;;11.07;;
33593;SDS011;19920;52.242;20.940;2023-11-19T09:19:36;18.20;;;11.00;;
33593;SDS011;19920;52.242;20.940;2023-11-19T09:22:02;18.13;;;11.20;;
33593;SDS011;19920;52.242;20.940;2023-11-19T09:24:27;19.20;;;11.52;;
33593;SDS011;19920;52.242;20.940;2023-11-19T09:26:53;17.67;;;11.25;;
33593;SDS011;19920;52.242;20.940;2023-11-19T09:29:19;18.42;;;11.10;;
33593;SDS011;19920;52.242;20.940;2023-11-19T09:31:46;18.90;;;11.27;;
33593;SDS011;19920;52.242;20.940;2023-11-19T09:34:12;18.00;;;11.25;;
33593;SDS011;19920;52.242;20.940;2023-11-19T09:36:37;19.02;;;11.45;;
33593;SDS011;19920;52.242;20.940;2023-11-19T09:39:03;16.92;;;10.68;;
33593;SDS011;19920;52.242;20.940;2023-11-19T09:41:30;17.17;;;11.23;;
33593;SDS011;19920;52.242;20.940;2023-11-19T09:43:57;19.17;;;11.90;;
33593;SDS011;19920;52.242;20.940;2023-11-19T09:46:23;19.33;;;11.55;;
33593;SDS011;19920;52.242;20.940;2023-11-19T09:48:50;18.38;;;12.00;;
33593;SDS011;19920;52.242;20.940;2023-11-19T09:51:21;21.20;;;12.07;;
33593;SDS011;19920;52.242;20.940;2023-11-19T09:53:47;19.63;;;12.35;;
33593;SDS011;19920;52.242;20.940;2023-11-19T09:56:13;19.95;;;11.70;;
33593;SDS011;19920;52.242;20.940;2023-11-19T09:58:39;18.80;;;10.93;;
33593;SDS011;19920;52.242;20.940;2023-11-19T10:01:05;18.27;;;11.27;;
33593;SDS011;19920;52.242;20.940;2023-11-19T10:03:33;20.88;;;12.30;;
33593;SDS011;19920;52.242;20.940;2023-11-19T10:06:04;17.58;;;11.63;;
33593;SDS011;19920;52.242;20.940;2023-11-19T10:08:36;18.67;;;12.13;;
33593;SDS011;19920;52.242;20.940;2023-11-19T10:11:04;20.65;;;12.50;;
33593;SDS011;19920;52.242;20.940;2023-11-19T10:13:30;18.95;;;12.65;;
33593;SDS011;19920;52.242;20.940;2023-11-19T10:15:56;22.02;;;13.38;;
33593;SDS011;19920;52.242;20.940;2023-11-19T10:18:27;20.70;;;12.30;;
33593;SDS011;19920;52.242;20.940;2023-11-19T10:20:53;18.85;;;11.93;;
33593;SDS011;19920;52.242;20.940;2023-11-19T10:23:19;18.65;;;11.93;;
33593;SDS011;19920;52.242;20.940;2023-11-19T10:25:45;19.23;;;11.48;;
33593;SDS011;19920;52.242;20.940;2023-11-19T10:28:11;20.00;;;12.13;;
33593;SDS011;19920;52.242;20.940;2023-11-19T10:30:39;18.90;;;12.18;;
33593;SDS011;19920;52.242;20.940;2023-11-19T10:33:10;21.63;;;12.15;;
33593;SDS011;19920;52.242;20.940;2023-11-19T10:35:51;20.33;;;11.93;;
33593;SDS011;19920;52.242;20.940;2023-11-19T10:38:18;21.02;;;12.65;;
33593;SDS011;19920;52.242;20.940;2023-11-19T10:40:44;20.08;;;12.57;;
33593;SDS011;19920;52.242;20.940;2023-11-19T10:43:10;20.58;;;13.00;;
33593;SDS011;19920;52.242;20.940;2023-11-19T10:45:36;20.08;;;12.13;;
33593;SDS011;19920;52.242;20.940;2023-11-19T10:48:03;23.13;;;13.13;;
33593;SDS011;19920;52.242;20.940;2023-11-19T10:50:33;19.98;;;12.68;;
33593;SDS011;19920;52.242;20.940;2023-11-19T10:53:00;22.67;;;12.73;;
33593;SDS011;19920;52.242;20.940;2023-11-19T10:55:29;19.98;;;12.50;;
33593;SDS011;19920;52.242;20.940;2023-11-19T10:57:59;18.77;;;12.10;;
33593;SDS011;19920;52.242;20.940;2023-11-19T11:00:38;22.90;;;12.13;;
33593;SDS011;19920;52.242;20.940;2023-11-19T11:03:10;21.42;;;12.00;;
33593;SDS011;19920;52.242;20.940;2023-11-19T11:05:43;18.92;;;11.48;;
33593;SDS011;19920;52.242;20.940;2023-11-19T11:08:12;19.30;;;11.85;;
33593;SDS011;19920;52.242;20.940;2023-11-19T11:10:45;20.92;;;13.15;;
33593;SDS011;19920;52.242;20.940;2023-11-19T11:13:18;20.90;;;12.35;;
33593;SDS011;19920;52.242;20.940;2023-11-19T11:15:45;19.75;;;12.10;;
33593;SDS011;19920;52.242;20.940;2023-11-19T11:18:12;22.55;;;13.07;;
33593;SDS011;19920;52.242;20.940;2023-11-19T11:20:38;20.73;;;12.85;;
33593;SDS011;19920;52.242;20.940;2023-11-19T11:26:05;20.92;;;12.93;;
33593;SDS011;19920;52.242;20.940;2023-11-19T11:28:56;21.38;;;12.52;;
33593;SDS011;19920;52.242;20.940;2023-11-19T11:31:48;20.85;;;13.02;;
33593;SDS011;19920;52.242;20.940;2023-11-19T11:40:04;22.20;;;13.00;;
33593;SDS011;19920;52.242;20.940;2023-11-19T11:42:38;21.75;;;13.25;;
33593;SDS011;19920;52.242;20.940;2023-11-19T11:50:08;22.70;;;13.50;;
33593;SDS011;19920;52.242;20.940;2023-11-19T11:52:34;21.85;;;13.45;;
33593;SDS011;19920;52.242;20.940;2023-11-19T11:55:23;22.67;;;13.52;;
33593;SDS011;19920;52.242;20.940;2023-11-19T11:57:49;22.42;;;13.68;;
33593;SDS011;19920;52.242;20.940;2023-11-19T12:00:21;22.63;;;13.38;;
33593;SDS011;19920;52.242;20.940;2023-11-19T12:02:48;21.00;;;13.55;;
33593;SDS011;19920;52.242;20.940;2023-11-19T12:05:14;22.10;;;13.15;;
33593;SDS011;19920;52.242;20.940;2023-11-19T12:07:40;19.38;;;12.73;;
33593;SDS011;19920;52.242;20.940;2023-11-19T12:10:06;27.13;;;13.18;;
33593;SDS011;19920;52.242;20.940;2023-11-19T12:12:33;21.83;;;12.73;;
33593;SDS011;19920;52.242;20.940;2023-11-19T12:20:17;22.10;;;13.75;;
33593;SDS011;19920;52.242;20.940;2023-11-19T12:22:45;22.70;;;13.85;;
33593;SDS011;19920;52.242;20.940;2023-11-19T12:25:12;22.67;;;13.68;;
33593;SDS011;19920;52.242;20.940;2023-11-19T12:27:41;31.30;;;14.45;;
33593;SDS011;19920;52.242;20.940;2023-11-19T12:30:08;20.65;;;12.82;;
33593;SDS011;19920;52.242;20.940;2023-11-19T12:32:45;21.63;;;13.32;;
33593;SDS011;19920;52.242;20.940;2023-11-19T12:35:11;20.80;;;13.15;;
33593;SDS011;19920;52.242;20.940;2023-11-19T12:37:44;23.50;;;13.77;;
33593;SDS011;19920;52.242;20.940;2023-11-19T12:40:14;23.60;;;13.77;;
33593;SDS011;19920;52.242;20.940;2023-11-19T12:42:44;21.90;;;12.70;;
33593;SDS011;19920;52.242;20.940;2023-11-19T12:45:10;22.08;;;13.15;;
33593;SDS011;19920;52.242;20.940;2023-11-19T12:47:37;23.92;;;13.13;;
33593;SDS011;19920;52.242;20.940;2023-11-19T12:50:04;21.60;;;13.13;;
33593;SDS011;19920;52.242;20.940;2023-11-19T12:52:30;22.67;;;13.68;;
33593;SDS011;19920;52.242;20.940;2023-11-19T12:54:55;20.95;;;12.77;;
33593;SDS011;19920;52.242;20.940;2023-11-19T12:57:35;24.05;;;14.10;;
33593;SDS011;19920;52.242;20.940;2023-11-19T13:00:04;21.40;;;13.10;;
33593;SDS011;19920;52.242;20.940;2023-11-19T13:08:04;24.80;;;13.90;;
33593;SDS011;19920;52.242;20.940;2023-11-19T13:10:34;23.55;;;13.35;;
33593;SDS011;19920;52.242;20.940;2023-11-19T13:13:15;20.35;;;11.85;;
33593;SDS011;19920;52.242;20.940;2023-11-19T13:15:41;19.80;;;12.50;;
33593;SDS011;19920;52.242;20.940;2023-11-19T13:18:10;22.48;;;13.00;;
33593;SDS011;19920;52.242;20.940;2023-11-19T13:20:36;22.55;;;13.27;;
33593;SDS011;19920;52.242;20.940;2023-11-19T13:23:02;21.10;;;13.50;;
33593;SDS011;19920;52.242;20.940;2023-11-19T13:25:29;23.38;;;12.75;;
33593;SDS011;19920;52.242;20.940;2023-11-19T13:27:56;21.63;;;13.25;;
33593;SDS011;19920;52.242;20.940;2023-11-19T13:30:22;21.92;;;12.82;;
33593;SDS011;19920;52.242;20.940;2023-11-19T13:32:48;25.55;;;14.48;;
33593;SDS011;19920;52.242;20.940;2023-11-19T13:35:15;24.52;;;14.20;;
33593;SDS011;19920;52.242;20.940;2023-11-19T13:37:42;25.23;;;14.80;;
33593;SDS011;19920;52.242;20.940;2023-11-19T13:40:08;22.77;;;13.75;;
33593;SDS011;19920;52.242;20.940;2023-11-19T13:42:42;23.02;;;14.30;;
33593;SDS011;19920;52.242;20.940;2023-11-19T13:45:10;23.70;;;14.50;;
33593;SDS011;19920;52.242;20.940;2023-11-19T13:47:41;26.52;;;15.00;;
33593;SDS011;19920;52.242;20.940;2023-11-19T13:50:09;23.95;;;14.13;;
33593;SDS011;19920;52.242;20.940;2023-11-19T13:52:36;24.73;;;14.55;;
33593;SDS011;19920;52.242;20.940;2023-11-19T13:55:06;26.63;;;15.68;;
33593;SDS011;19920;52.242;20.940;2023-11-19T13:57:33;27.45;;;14.88;;
33593;SDS011;19920;52.242;20.940;2023-11-19T14:00:03;26.13;;;14.63;;
33593;SDS011;19920;52.242;20.940;2023-11-19T14:02:31;26.67;;;14.88;;
33593;SDS011;19920;52.242;20.940;2023-11-19T14:04:59;27.58;;;15.63;;
33593;SDS011;19920;52.242;20.940;2023-11-19T14:07:25;25.55;;;15.65;;
33593;SDS011;19920;52.242;20.940;2023-11-19T14:09:51;27.65;;;16.02;;
33593;SDS011;19920;52.242;20.940;2023-11-19T14:12:16;27.42;;;16.23;;
33593;SDS011;19920;52.242;20.940;2023-11-19T14:14:42;28.25;;;14.82;;
33593;SDS011;19920;52.242;20.940;2023-11-19T14:17:08;29.52;;;16.52;;
33593;SDS011;19920;52.242;20.940;2023-11-19T14:19:35;27.48;;;15.52;;
33593;SDS011;19920;52.242;20.940;2023-11-19T14:22:01;26.67;;;16.15;;
33593;SDS011;19920;52.242;20.940;2023-11-19T14:24:27;28.73;;;16.27;;
33593;SDS011;19920;52.242;20.940;2023-11-19T14:26:53;31.63;;;16.63;;
33593;SDS011;19920;52.242;20.940;2023-11-19T14:29:18;27.85;;;16.33;;
33593;SDS011;19920;52.242;20.940;2023-11-19T14:31:44;31.70;;;16.50;;
33593;SDS011;19920;52.242;20.940;2023-11-19T14:34:09;28.65;;;16.15;;